Time;durP1;ratioP1;P1;durP2;ratioP2;P2;SDS_P1;SDS_P2;PMS_P1;PMS_P2;Temp;Humidity;BMP_temperature;BMP_pressure;BME280_temperature;BME280_humidity;BME280_pressure;Samples;Min_cycle;Max_cycle;Signal;HPM_P1;HPM_P2
2023/12/06 00:02:23;;;;;;;52.58;27.77;;;1.40;99.90;;;;;;5069866;28;20119;-81
2023/12/06 00:04:48;;;;;;;54.50;30.10;;;1.40;99.90;;;;;;5050870;28;20456;-81
2023/12/06 00:07:14;;;;;;;52.00;28.83;;;1.40;99.90;;;;;;5057798;28;20052;-82
2023/12/06 00:09:40;;;;;;;51.53;27.95;;;1.40;99.90;;;;;;5069754;28;20055;-82
2023/12/06 00:12:06;;;;;;;49.45;26.67;;;1.40;99.90;;;;;;5065091;28;20368;-79
2023/12/06 00:14:31;;;;;;;52.15;29.80;;;1.40;99.90;;;;;;5050118;28;20135;-80
2023/12/06 00:16:57;;;;;;;51.83;29.13;;;1.40;99.90;;;;;;5053348;28;20091;-80
2023/12/06 00:19:23;;;;;;;51.70;27.92;;;1.40;99.90;;;;;;5052559;28;20579;-79
2023/12/06 00:21:49;;;;;;;50.25;28.13;;;1.40;99.90;;;;;;5053381;28;20757;-80
2023/12/06 00:24:14;;;;;;;48.53;27.27;;;1.50;99.90;;;;;;5066682;28;20052;-80
2023/12/06 00:26:42;;;;;;;52.20;28.50;;;1.40;99.90;;;;;;5069145;28;20061;-80
2023/12/06 00:29:08;;;;;;;51.42;28.75;;;2.50;99.90;;;;;;5053057;28;20077;-80
2023/12/06 00:31:33;;;;;;;52.15;28.92;;;1.40;99.90;;;;;;5053420;28;20138;-79
2023/12/06 00:33:59;;;;;;;50.80;27.77;;;1.40;99.90;;;;;;5052873;28;20060;-80
2023/12/06 00:36:24;;;;;;;55.03;29.90;;;1.40;99.90;;;;;;5053058;28;20053;-80
2023/12/06 00:38:51;;;;;;;53.72;28.52;;;1.40;99.90;;;;;;5053325;28;20045;-80
2023/12/06 00:41:17;;;;;;;50.80;28.02;;;1.40;99.90;;;;;;5061275;28;20431;-80
2023/12/06 00:43:43;;;;;;;52.50;30.15;;;1.40;99.90;;;;;;5059935;28;20049;-80
2023/12/06 00:46:08;;;;;;;52.92;28.52;;;1.40;99.90;;;;;;5052409;28;20055;-80
2023/12/06 00:48:34;;;;;;;50.55;27.55;;;1.40;99.90;;;;;;5052761;28;20052;-82
2023/12/06 00:51:01;;;;;;;54.67;27.60;;;1.40;99.90;;;;;;5052265;28;20102;-80
2023/12/06 00:53:28;;;;;;;50.85;27.00;;;1.40;99.90;;;;;;5052416;28;20123;-80
2023/12/06 00:55:53;;;;;;;51.90;27.25;;;1.80;99.90;;;;;;5036231;28;20131;-78
2023/12/06 00:58:19;;;;;;;52.03;28.70;;;1.40;99.90;;;;;;5062160;28;20201;-81
2023/12/06 01:00:44;;;;;;;60.15;30.45;;;1.40;99.90;;;;;;5072228;28;20585;-80
2023/12/06 01:03:10;;;;;;;49.25;27.48;;;1.50;99.90;;;;;;5064096;28;20048;-80
2023/12/06 01:05:36;;;;;;;54.45;28.77;;;1.40;99.90;;;;;;5052573;28;20071;-80
2023/12/06 01:08:01;;;;;;;49.47;26.23;;;1.40;99.90;;;;;;5052640;28;20045;-79
2023/12/06 01:10:27;;;;;;;51.25;27.65;;;1.40;99.90;;;;;;5061387;28;20055;-80
2023/12/06 01:12:53;;;;;;;52.97;29.02;;;1.40;99.90;;;;;;5066546;28;20037;-81
2023/12/06 01:15:18;;;;;;;55.85;27.90;;;1.50;99.90;;;;;;5051809;28;20369;-80
2023/12/06 01:17:46;;;;;;;52.50;29.90;;;1.40;99.90;;;;;;5051743;28;20065;-79
2023/12/06 01:20:12;;;;;;;53.65;29.02;;;1.40;99.90;;;;;;5051864;28;20055;-79
2023/12/06 01:22:37;;;;;;;48.65;27.35;;;1.50;99.90;;;;;;5052057;28;20044;-80
2023/12/06 01:25:03;;;;;;;51.47;28.50;;;1.40;99.90;;;;;;5053000;28;20040;-80
2023/12/06 01:27:29;;;;;;;47.60;25.90;;;1.40;99.90;;;;;;5051965;28;20473;-83
2023/12/06 01:29:54;;;;;;;57.25;31.75;;;1.40;99.90;;;;;;5062789;28;20420;-80
2023/12/06 01:32:20;;;;;;;53.95;28.38;;;1.40;99.90;;;;;;5072148;28;20131;-80
2023/12/06 01:34:46;;;;;;;52.28;29.40;;;1.40;99.90;;;;;;5072106;28;20041;-80
2023/12/06 01:37:12;;;;;;;52.05;27.73;;;1.40;99.90;;;;;;5071820;28;20049;-80
2023/12/06 01:39:38;;;;;;;53.08;28.90;;;1.50;99.90;;;;;;5055109;28;20048;-84
2023/12/06 01:42:03;;;;;;;56.55;29.73;;;1.40;99.90;;;;;;5051543;28;20060;-78
2023/12/06 01:44:29;;;;;;;53.65;29.48;;;1.40;99.90;;;;;;5051961;28;20080;-80
2023/12/06 01:46:55;;;;;;;55.15;29.63;;;1.40;99.90;;;;;;5052069;28;20056;-80
2023/12/06 01:49:21;;;;;;;57.25;30.02;;;1.40;99.90;;;;;;5070982;28;20052;-80
2023/12/06 01:51:47;;;;;;;54.88;29.65;;;1.40;99.90;;;;;;5071627;28;20040;-80
2023/12/06 01:54:12;;;;;;;52.58;29.10;;;1.40;99.90;;;;;;5072008;28;20051;-80
2023/12/06 01:56:39;;;;;;;56.92;28.92;;;1.40;99.90;;;;;;5071888;28;20086;-80
2023/12/06 01:59:07;;;;;;;48.53;27.13;;;1.80;99.90;;;;;;5071841;28;20050;-80
2023/12/06 02:01:34;;;;;;;64.70;30.83;;;1.40;99.90;;;;;;5071134;28;20032;-80
2023/12/06 02:04:00;;;;;;;60.38;29.65;;;1.40;99.90;;;;;;5052382;28;20045;-80
2023/12/06 02:06:26;;;;;;;54.17;29.05;;;1.40;99.90;;;;;;5053874;28;20177;-79
2023/12/06 02:08:52;;;;;;;60.08;30.52;;;1.50;99.90;;;;;;5051886;28;20045;-80
2023/12/06 02:11:18;;;;;;;56.25;29.52;;;1.70;99.90;;;;;;5051557;28;20111;-80
2023/12/06 02:13:43;;;;;;;55.67;29.98;;;1.40;99.90;;;;;;5051628;28;20762;-79
2023/12/06 02:16:09;;;;;;;60.70;30.77;;;1.40;99.90;;;;;;5051539;28;20107;-80
2023/12/06 02:18:35;;;;;;;57.90;29.85;;;2.20;99.90;;;;;;5052833;28;20056;-80
2023/12/06 02:21:02;;;;;;;61.05;31.55;;;1.40;99.90;;;;;;5071122;28;20102;-80
2023/12/06 02:23:35;;;;;;;53.30;28.75;;;1.40;99.90;;;;;;5069322;28;20120;-80
2023/12/06 02:26:01;;;;;;;52.03;26.67;;;1.40;99.90;;;;;;5051863;28;20049;-80
2023/12/06 02:28:27;;;;;;;49.80;28.83;;;1.40;99.90;;;;;;5061334;28;20049;-80
2023/12/06 02:30:53;;;;;;;61.03;30.65;;;1.40;99.90;;;;;;5051474;28;20131;-80
2023/12/06 02:33:19;;;;;;;55.42;29.83;;;1.40;99.90;;;;;;5051343;28;20392;-80
2023/12/06 02:35:48;;;;;;;58.80;31.10;;;1.40;99.90;;;;;;5051195;28;20435;-82
2023/12/06 02:38:16;;;;;;;57.00;29.70;;;2.40;99.90;;;;;;5051689;28;20053;-80
2023/12/06 02:40:45;;;;;;;52.00;28.40;;;1.40;99.90;;;;;;5051474;28;20041;-79
2023/12/06 02:43:12;;;;;;;52.60;28.95;;;1.40;99.90;;;;;;5065480;28;19920;-80
2023/12/06 02:45:37;;;;;;;57.42;29.55;;;1.40;99.90;;;;;;5074643;28;20036;-80
2023/12/06 02:48:07;;;;;;;57.08;27.92;;;1.40;99.90;;;;;;5055712;28;20055;-80
2023/12/06 02:50:33;;;;;;;55.00;27.63;;;1.40;99.90;;;;;;5055737;28;20170;-79
2023/12/06 02:52:58;;;;;;;52.08;28.08;;;1.40;99.90;;;;;;5072901;28;20054;-80
2023/12/06 02:55:24;;;;;;;47.97;25.92;;;1.40;99.90;;;;;;5061716;28;20052;-79
2023/12/06 02:57:50;;;;;;;50.97;26.95;;;1.90;99.90;;;;;;5055102;28;20041;-81
2023/12/06 03:00:16;;;;;;;55.47;28.48;;;1.40;99.90;;;;;;5054894;28;20442;-80
2023/12/06 03:02:41;;;;;;;47.28;25.73;;;1.40;99.90;;;;;;5064532;28;20041;-80
2023/12/06 03:05:07;;;;;;;51.10;27.30;;;1.40;99.90;;;;;;5037629;28;20401;-80
2023/12/06 03:07:33;;;;;;;45.58;24.88;;;1.40;99.90;;;;;;5069136;28;20040;-80
2023/12/06 03:09:59;;;;;;;42.33;23.50;;;1.40;99.90;;;;;;5074733;28;20115;-80
2023/12/06 03:12:25;;;;;;;44.33;24.85;;;1.50;99.90;;;;;;5074220;28;20090;-80
2023/12/06 03:14:50;;;;;;;42.05;24.40;;;1.40;99.90;;;;;;5054452;28;20084;-80
2023/12/06 03:17:16;;;;;;;40.55;23.88;;;1.40;99.90;;;;;;5054162;28;20056;-80
2023/12/06 03:19:42;;;;;;;42.25;23.98;;;1.50;99.90;;;;;;5054489;28;20099;-79
2023/12/06 03:22:07;;;;;;;39.95;22.63;;;1.40;99.90;;;;;;5053896;28;20049;-83
2023/12/06 03:24:33;;;;;;;38.97;22.45;;;1.40;99.90;;;;;;5070437;28;20048;-79
2023/12/06 03:26:58;;;;;;;40.10;23.52;;;1.40;99.90;;;;;;5060936;28;20052;-79
2023/12/06 03:29:24;;;;;;;46.88;25.48;;;1.50;99.90;;;;;;5054246;28;20055;-80
2023/12/06 03:31:49;;;;;;;41.35;23.80;;;1.50;99.90;;;;;;5054085;28;20511;-80
2023/12/06 03:34:15;;;;;;;39.35;23.10;;;1.50;99.90;;;;;;5055470;28;20183;-80
2023/12/06 03:36:41;;;;;;;42.85;24.60;;;1.50;99.90;;;;;;5074440;28;20191;-80
2023/12/06 03:39:06;;;;;;;41.25;23.00;;;1.50;99.90;;;;;;5074325;28;20044;-79
2023/12/06 03:41:32;;;;;;;39.28;23.20;;;1.40;99.90;;;;;;5074006;28;20496;-79
2023/12/06 03:43:58;;;;;;;41.88;23.85;;;1.50;99.90;;;;;;5055440;28;20051;-80
2023/12/06 03:46:23;;;;;;;39.15;22.13;;;1.40;99.90;;;;;;5054103;28;20110;-79
2023/12/06 03:48:49;;;;;;;35.83;20.40;;;1.40;99.90;;;;;;5054211;28;20554;-82
2023/12/06 03:51:14;;;;;;;33.97;20.95;;;1.50;99.90;;;;;;5053745;28;20071;-79
2023/12/06 03:53:40;;;;;;;36.22;22.38;;;1.50;99.90;;;;;;5053368;28;20048;-80
2023/12/06 03:56:06;;;;;;;37.70;20.95;;;1.50;99.90;;;;;;5053684;28;20045;-79
2023/12/06 03:58:32;;;;;;;36.25;21.42;;;1.40;99.90;;;;;;5053719;28;20048;-79
2023/12/06 04:00:58;;;;;;;38.70;22.13;;;1.50;99.90;;;;;;5057383;28;20055;-79
2023/12/06 04:03:24;;;;;;;34.88;21.17;;;1.40;99.90;;;;;;5066587;28;20124;-79
2023/12/06 04:05:49;;;;;;;37.42;22.20;;;1.50;99.90;;;;;;5053844;28;20076;-80
2023/12/06 04:08:15;;;;;;;37.05;22.15;;;1.50;99.90;;;;;;5053542;28;20375;-80
2023/12/06 04:10:41;;;;;;;33.72;20.73;;;1.50;99.90;;;;;;5053691;28;20056;-79
2023/12/06 04:13:06;;;;;;;35.17;21.92;;;1.40;99.90;;;;;;5053607;28;20362;-80
2023/12/06 04:15:32;;;;;;;37.17;23.10;;;1.50;99.90;;;;;;5053332;28;20104;-79
2023/12/06 04:17:57;;;;;;;38.17;22.35;;;1.40;99.90;;;;;;5052992;28;20088;-80
2023/12/06 04:20:23;;;;;;;35.97;21.15;;;1.40;99.90;;;;;;5053383;28;20045;-81
2023/12/06 04:22:49;;;;;;;34.40;20.63;;;1.40;99.90;;;;;;5057107;28;20033;-80
2023/12/06 04:25:15;;;;;;;37.78;22.17;;;1.40;99.90;;;;;;5038062;28;20140;-80
2023/12/06 04:27:41;;;;;;;34.67;19.98;;;1.50;99.90;;;;;;5073018;28;20127;-80
2023/12/06 04:30:09;;;;;;;31.50;19.48;;;1.50;99.90;;;;;;5063089;28;20087;-79
2023/12/06 04:32:35;;;;;;;33.53;21.05;;;1.50;99.90;;;;;;5054240;28;20033;-79
2023/12/06 04:35:01;;;;;;;36.95;21.63;;;1.50;99.90;;;;;;5073173;28;20056;-80
2023/12/06 04:37:27;;;;;;;39.42;22.55;;;1.50;99.90;;;;;;5073069;28;20461;-80
2023/12/06 04:39:52;;;;;;;34.10;19.98;;;1.50;99.90;;;;;;5069294;28;20048;-80
2023/12/06 04:42:18;;;;;;;33.28;20.00;;;1.50;99.90;;;;;;5062844;28;20072;-80
2023/12/06 04:44:44;;;;;;;31.05;19.73;;;1.50;99.90;;;;;;5070317;28;20144;-80
2023/12/06 04:47:09;;;;;;;32.28;20.10;;;1.50;99.90;;;;;;5052744;28;20060;-80
2023/12/06 04:49:35;;;;;;;30.60;18.90;;;1.50;99.90;;;;;;5052768;28;20040;-80
2023/12/06 04:52:01;;;;;;;34.38;21.45;;;1.50;99.90;;;;;;5052569;28;20059;-80
2023/12/06 04:54:27;;;;;;;31.48;20.35;;;1.50;99.90;;;;;;5053003;28;20044;-80
2023/12/06 04:56:53;;;;;;;30.52;19.13;;;1.50;99.90;;;;;;5052536;28;20045;-80
2023/12/06 04:59:18;;;;;;;35.55;20.85;;;1.50;99.90;;;;;;5052523;28;20045;-80
2023/12/06 05:01:44;;;;;;;33.42;19.35;;;1.50;99.90;;;;;;5060911;28;20053;-80
2023/12/06 05:04:10;;;;;;;30.75;19.35;;;1.50;99.90;;;;;;5066392;28;20062;-81
2023/12/06 05:06:36;;;;;;;28.17;18.98;;;1.50;99.90;;;;;;5072244;28;20040;-81
2023/12/06 05:09:04;;;;;;;31.95;19.15;;;1.50;99.90;;;;;;5069261;28;20114;-80
2023/12/06 05:11:30;;;;;;;37.58;19.55;;;1.50;99.90;;;;;;5052100;28;20646;-79
2023/12/06 05:13:56;;;;;;;32.42;19.25;;;1.50;99.90;;;;;;5063236;28;20091;-80
2023/12/06 05:16:22;;;;;;;29.33;18.30;;;1.50;99.90;;;;;;5071531;28;20097;-81
2023/12/06 05:18:48;;;;;;;30.15;18.45;;;1.50;99.90;;;;;;5071489;28;20056;-81
2023/12/06 05:21:13;;;;;;;27.67;18.23;;;1.80;99.90;;;;;;5071934;28;20162;-80
2023/12/06 05:23:39;;;;;;;31.75;20.17;;;1.50;99.90;;;;;;5059734;28;20568;-81
2023/12/06 05:26:05;;;;;;;28.55;17.65;;;1.50;99.90;;;;;;5052171;28;20084;-81
2023/12/06 05:28:30;;;;;;;27.98;18.23;;;1.50;99.90;;;;;;5059796;28;20041;-81
2023/12/06 05:30:56;;;;;;;27.92;17.52;;;1.50;99.90;;;;;;5051993;28;20524;-80
2023/12/06 05:33:22;;;;;;;28.90;17.85;;;1.50;99.90;;;;;;5052057;28;20044;-80
2023/12/06 05:35:47;;;;;;;27.23;18.25;;;1.60;99.90;;;;;;5052123;28;20370;-82
2023/12/06 05:38:13;;;;;;;33.03;18.80;;;1.50;99.90;;;;;;5065811;28;20055;-79
2023/12/06 05:40:39;;;;;;;27.17;17.38;;;1.50;99.90;;;;;;5071839;28;20044;-81
2023/12/06 05:43:04;;;;;;;28.40;18.05;;;1.50;99.90;;;;;;5069834;28;20543;-81
2023/12/06 05:45:31;;;;;;;30.52;19.05;;;1.50;99.90;;;;;;5066996;28;20040;-81
2023/12/06 05:47:56;;;;;;;30.17;18.55;;;1.50;99.90;;;;;;5059790;28;20045;-81
2023/12/06 05:50:22;;;;;;;31.45;19.80;;;1.50;99.90;;;;;;5062542;28;20371;-81
2023/12/06 05:52:48;;;;;;;30.50;18.83;;;1.50;99.90;;;;;;5060439;28;20049;-83
2023/12/06 05:55:14;;;;;;;30.30;19.60;;;1.50;99.90;;;;;;5051948;28;20041;-80
2023/12/06 05:57:40;;;;;;;31.40;19.38;;;1.50;99.90;;;;;;5051167;28;20380;-82
2023/12/06 06:00:09;;;;;;;30.15;17.95;;;1.50;99.90;;;;;;5054408;28;20513;-80
2023/12/06 06:02:35;;;;;;;27.85;16.92;;;1.50;99.90;;;;;;5059630;28;20440;-79
2023/12/06 06:05:01;;;;;;;26.73;18.42;;;1.50;99.90;;;;;;5063686;28;20128;-79
2023/12/06 06:07:26;;;;;;;27.95;18.45;;;1.50;99.90;;;;;;5065047;28;20035;-79
2023/12/06 06:09:52;;;;;;;27.10;17.23;;;1.50;99.90;;;;;;5071711;28;20044;-79
2023/12/06 06:12:18;;;;;;;30.50;18.30;;;1.80;99.90;;;;;;5055609;28;20371;-80
2023/12/06 06:14:44;;;;;;;29.33;18.08;;;1.60;99.90;;;;;;5071570;28;20132;-79
2023/12/06 06:17:09;;;;;;;30.88;17.80;;;1.60;99.90;;;;;;5057085;28;20057;-80
2023/12/06 06:19:35;;;;;;;31.48;18.10;;;1.60;99.90;;;;;;5055533;28;20056;-80
2023/12/06 06:22:00;;;;;;;30.35;18.77;;;1.60;99.90;;;;;;5070421;28;20056;-79
2023/12/06 06:24:26;;;;;;;31.75;19.63;;;2.40;99.90;;;;;;5068252;28;20055;-81
2023/12/06 06:26:52;;;;;;;28.52;17.70;;;1.60;99.90;;;;;;5068665;28;20045;-80
2023/12/06 06:29:18;;;;;;;30.60;19.73;;;2.00;99.90;;;;;;5056327;28;20037;-83
2023/12/06 06:31:43;;;;;;;28.42;18.73;;;1.60;99.90;;;;;;5045621;28;20460;-79
2023/12/06 06:34:09;;;;;;;27.02;17.52;;;1.60;99.90;;;;;;5071413;28;20519;-81
2023/12/06 06:36:36;;;;;;;28.17;17.75;;;1.60;99.90;;;;;;5072231;28;20049;-80
2023/12/06 06:39:02;;;;;;;27.20;17.25;;;1.60;99.90;;;;;;5059175;28;20111;-80
2023/12/06 06:41:27;;;;;;;30.15;16.92;;;1.60;99.90;;;;;;5063516;28;20049;-80
2023/12/06 06:43:53;;;;;;;30.35;19.58;;;1.60;99.90;;;;;;5054663;28;20552;-80
2023/12/06 06:46:19;;;;;;;28.55;19.45;;;1.60;99.90;;;;;;5061781;28;20048;-79
2023/12/06 06:48:44;;;;;;;27.65;18.40;;;1.60;99.90;;;;;;5066940;28;20432;-80
2023/12/06 06:51:10;;;;;;;25.73;16.35;;;1.60;99.90;;;;;;5071058;28;20049;-82
2023/12/06 06:53:36;;;;;;;29.02;17.60;;;1.80;99.90;;;;;;5055437;28;20092;-81
2023/12/06 06:56:02;;;;;;;31.58;19.73;;;1.90;99.90;;;;;;5055086;28;20049;-81
2023/12/06 06:58:28;;;;;;;26.50;17.10;;;1.60;99.90;;;;;;5053768;28;20044;-81
2023/12/06 07:00:54;;;;;;;20.52;13.80;;;1.60;99.90;;;;;;5053866;28;20041;-81
2023/12/06 07:03:21;;;;;;;27.65;17.80;;;1.70;99.90;;;;;;5067995;28;20461;-81
2023/12/06 07:05:46;;;;;;;29.67;19.17;;;1.60;99.90;;;;;;5057635;28;20055;-82
2023/12/06 07:08:12;;;;;;;26.55;16.88;;;1.70;99.90;;;;;;5063231;28;20136;-80
2023/12/06 07:10:38;;;;;;;27.33;17.38;;;1.70;99.90;;;;;;5071042;28;20036;-82
2023/12/06 07:13:04;;;;;;;23.92;15.65;;;1.70;99.90;;;;;;5074602;28;20048;-82
2023/12/06 07:15:30;;;;;;;25.48;16.30;;;1.70;99.90;;;;;;5074886;28;20162;-82
2023/12/06 07:17:56;;;;;;;26.55;15.80;;;1.70;99.90;;;;;;5057780;28;20110;-81
2023/12/06 07:20:24;;;;;;;27.58;17.48;;;1.70;99.90;;;;;;5068250;28;20481;-81
2023/12/06 07:22:50;;;;;;;27.35;15.45;;;1.70;99.90;;;;;;5054296;28;20056;-87
2023/12/06 07:25:16;;;;;;;28.85;17.52;;;1.70;99.90;;;;;;5064972;28;20045;-86
2023/12/06 07:27:44;;;;;;;28.35;18.40;;;1.70;99.90;;;;;;5054034;28;20475;-82
2023/12/06 07:30:16;;;;;;;27.00;17.23;;;1.70;99.90;;;;;;5054044;28;20049;-88
2023/12/06 07:32:42;;;;;;;32.50;16.75;;;1.70;99.90;;;;;;5055158;28;20076;-83
2023/12/06 07:35:08;;;;;;;25.67;16.17;;;1.70;99.90;;;;;;5074037;28;20137;-85
2023/12/06 07:37:34;;;;;;;29.20;16.20;;;1.70;99.90;;;;;;5074348;28;20055;-83
2023/12/06 07:39:59;;;;;;;26.25;17.10;;;1.70;99.90;;;;;;5067716;28;20504;-85
2023/12/06 07:42:25;;;;;;;26.40;16.17;;;2.20;99.90;;;;;;5055767;28;20064;-88
2023/12/06 07:44:51;;;;;;;27.65;18.08;;;1.70;99.90;;;;;;5074340;28;20045;-87
2023/12/06 07:47:16;;;;;;;25.50;17.60;;;1.70;99.90;;;;;;5060739;28;20051;-86
2023/12/06 07:49:42;;;;;;;25.20;16.52;;;1.70;99.90;;;;;;5073732;28;20740;-86
2023/12/06 07:52:08;;;;;;;25.20;15.93;;;1.70;99.90;;;;;;5071116;28;20049;-87
2023/12/06 07:54:33;;;;;;;27.92;17.10;;;1.70;99.90;;;;;;5053280;28;20729;-87
2023/12/06 07:56:59;;;;;;;27.10;17.70;;;1.70;99.90;;;;;;5053683;28;20049;-87
2023/12/06 07:59:24;;;;;;;26.88;15.75;;;1.70;99.90;;;;;;5036565;28;20095;-87
2023/12/06 08:01:50;;;;;;;25.15;16.15;;;1.70;99.90;;;;;;5037351;28;20045;-87
2023/12/06 08:04:16;;;;;;;27.77;18.33;;;1.70;99.90;;;;;;5060724;28;20044;-86
2023/12/06 08:06:41;;;;;;;27.25;17.08;;;1.70;99.90;;;;;;5073766;28;20373;-88
2023/12/06 08:09:11;;;;;;;26.45;17.58;;;2.10;99.90;;;;;;5074167;28;20049;-89
2023/12/06 08:11:37;;;;;;;29.05;17.50;;;1.80;99.90;;;;;;5072773;28;20051;-87
2023/12/06 08:14:03;;;;;;;27.67;17.67;;;1.80;99.90;;;;;;5068861;28;20048;-88
2023/12/06 08:16:29;;;;;;;23.13;15.73;;;1.70;99.90;;;;;;5064136;28;20189;-87
2023/12/06 08:18:54;;;;;;;31.30;18.10;;;1.80;99.90;;;;;;5073160;28;20056;-87
2023/12/06 08:21:20;;;;;;;30.75;17.95;;;1.80;99.90;;;;;;5054693;28;20044;-87
2023/12/06 08:23:46;;;;;;;22.55;14.52;;;1.80;99.90;;;;;;5059267;28;20392;-89
2023/12/06 08:26:12;;;;;;;25.90;15.93;;;1.80;99.90;;;;;;5053516;28;20049;-89
2023/12/06 08:28:39;;;;;;;23.25;15.05;;;1.80;99.90;;;;;;5054869;28;20056;-90
2023/12/06 08:31:05;;;;;;;24.48;15.32;;;1.80;99.90;;;;;;5073766;28;20135;-88
2023/12/06 08:33:31;;;;;;;27.30;17.40;;;1.80;99.90;;;;;;5073483;28;20115;-87
2023/12/06 08:35:57;;;;;;;21.80;14.95;;;1.80;99.90;;;;;;5065747;28;20053;-91
2023/12/06 08:38:22;;;;;;;25.80;15.85;;;1.80;99.90;;;;;;5064594;28;20045;-87
2023/12/06 08:40:48;;;;;;;23.65;15.85;;;1.90;99.90;;;;;;5072224;28;20051;-88
2023/12/06 08:43:14;;;;;;;22.52;15.68;;;1.80;99.90;;;;;;5072898;28;20046;-86
2023/12/06 08:45:39;;;;;;;22.92;16.10;;;1.80;99.90;;;;;;5072606;28;20471;-87
2023/12/06 08:48:06;;;;;;;30.10;18.25;;;1.80;99.90;;;;;;5072636;28;20110;-90
2023/12/06 08:50:31;;;;;;;28.67;16.92;;;1.90;99.90;;;;;;5072075;28;20049;-88
2023/12/06 08:52:57;;;;;;;29.88;18.58;;;1.90;99.90;;;;;;5072054;28;20113;-89
2023/12/06 08:55:23;;;;;;;28.65;18.52;;;1.90;99.90;;;;;;5072510;28;20497;-88
2023/12/06 08:57:50;;;;;;;24.20;15.93;;;1.90;99.90;;;;;;5068579;28;21182;-88
2023/12/06 09:00:16;;;;;;;27.38;18.17;;;2.30;99.90;;;;;;5055059;28;20098;-88
2023/12/06 09:02:42;;;;;;;24.20;16.02;;;1.90;99.90;;;;;;5036188;28;20037;-86
2023/12/06 09:05:11;;;;;;;23.20;15.27;;;1.90;99.90;;;;;;5072278;28;20377;-88
2023/12/06 09:07:37;;;;;;;24.27;16.23;;;2.00;99.90;;;;;;5072319;28;20048;-86
2023/12/06 09:10:03;;;;;;;21.77;15.57;;;2.00;99.90;;;;;;5059427;28;20048;-87
2023/12/06 09:12:29;;;;;;;23.13;16.08;;;2.00;99.90;;;;;;5054028;28;20500;-87
2023/12/06 09:14:55;;;;;;;25.63;15.95;;;2.00;99.90;;;;;;5053928;28;20059;-87
2023/12/06 09:17:21;;;;;;;22.38;14.65;;;2.00;99.90;;;;;;5068051;28;20376;-87
2023/12/06 09:19:46;;;;;;;24.92;16.75;;;2.00;99.90;;;;;;5053271;28;20111;-87
2023/12/06 09:22:15;;;;;;;25.85;15.80;;;2.20;99.90;;;;;;5052823;28;20047;-88
2023/12/06 09:24:42;;;;;;;26.23;15.05;;;2.00;99.90;;;;;;5058943;28;20045;-88
2023/12/06 09:27:08;;;;;;;27.67;16.52;;;2.00;99.90;;;;;;5062007;28;20048;-87
2023/12/06 09:29:33;;;;;;;26.73;16.52;;;2.00;99.90;;;;;;5066325;28;20055;-88
2023/12/06 09:31:59;;;;;;;23.52;15.30;;;2.00;99.90;;;;;;5051492;28;20040;-86
2023/12/06 09:34:25;;;;;;;24.40;15.55;;;2.00;99.90;;;;;;5035418;28;20474;-87
2023/12/06 09:36:50;;;;;;;25.73;17.65;;;2.00;99.90;;;;;;5051758;28;20072;-87
2023/12/06 09:39:20;;;;;;;26.73;16.92;;;2.10;99.90;;;;;;5064914;28;20044;-87
2023/12/06 09:41:46;;;;;;;26.63;17.05;;;2.10;99.90;;;;;;5046535;28;20041;-87
2023/12/06 09:44:15;;;;;;;26.90;16.95;;;2.40;99.90;;;;;;5052218;28;20045;-85
2023/12/06 09:46:43;;;;;;;22.50;14.93;;;2.10;99.90;;;;;;5057216;28;20401;-87
2023/12/06 09:49:08;;;;;;;23.77;16.75;;;2.10;99.90;;;;;;5036099;28;20083;-82
2023/12/06 09:51:34;;;;;;;25.08;16.95;;;2.10;99.90;;;;;;5051211;28;20088;-83
2023/12/06 09:54:00;;;;;;;28.73;17.80;;;2.10;99.90;;;;;;5054516;28;20496;-83
2023/12/06 09:56:26;;;;;;;26.35;16.77;;;2.80;99.90;;;;;;5043788;28;20047;-82
2023/12/06 09:58:52;;;;;;;25.25;16.27;;;2.20;99.90;;;;;;5054143;28;20126;-82
2023/12/06 10:01:17;;;;;;;26.58;17.38;;;2.20;99.90;;;;;;5062601;28;20045;-83
2023/12/06 10:03:43;;;;;;;26.75;17.50;;;2.20;99.90;;;;;;5073575;28;20052;-83
2023/12/06 10:06:09;;;;;;;25.95;16.58;;;2.10;99.90;;;;;;5054310;28;20225;-81
2023/12/06 10:08:35;;;;;;;23.77;15.25;;;2.20;99.90;;;;;;5066164;28;20048;-82
2023/12/06 10:11:03;;;;;;;27.25;16.90;;;2.10;99.90;;;;;;5064341;28;20063;-82
2023/12/06 10:13:37;;;;;;;24.42;15.68;;;2.20;99.90;;;;;;5071209;28;20124;-82
2023/12/06 10:16:13;;;;;;;36.27;21.40;;;2.20;99.90;;;;;;5071345;28;20145;-80
2023/12/06 10:18:40;;;;;;;26.15;16.42;;;2.20;99.90;;;;;;5071032;28;20994;-82
2023/12/06 10:21:06;;;;;;;23.48;15.40;;;2.20;99.90;;;;;;5071601;28;20546;-81
2023/12/06 10:23:31;;;;;;;24.60;16.48;;;2.20;99.90;;;;;;5053619;28;20041;-84
2023/12/06 10:25:57;;;;;;;27.60;16.98;;;2.30;99.90;;;;;;5051790;28;20384;-81
2023/12/06 10:28:23;;;;;;;24.95;15.73;;;2.30;99.90;;;;;;5051383;28;20051;-82
2023/12/06 10:31:09;;;;;;;21.98;14.90;;;2.30;99.90;;;;;;5053759;28;20055;-86
2023/12/06 10:33:35;;;;;;;24.13;15.45;;;2.30;99.90;;;;;;5051522;28;20412;-81
2023/12/06 10:36:02;;;;;;;22.30;14.98;;;2.30;99.90;;;;;;5051570;28;20053;-84
2023/12/06 10:38:28;;;;;;;26.00;16.33;;;2.30;99.90;;;;;;5051289;28;20041;-84
2023/12/06 10:41:02;;;;;;;34.35;22.85;;;2.30;99.90;;;;;;5059021;28;20498;-83
2023/12/06 10:43:29;;;;;;;22.42;14.48;;;2.30;99.90;;;;;;5067874;28;20113;-80
2023/12/06 10:45:55;;;;;;;23.50;14.57;;;2.30;99.90;;;;;;5068324;28;20454;-81
2023/12/06 10:48:22;;;;;;;25.65;14.45;;;2.30;99.90;;;;;;5070327;28;20091;-81
2023/12/06 10:50:49;;;;;;;31.92;21.45;;;2.30;99.90;;;;;;5058008;28;20045;-81
2023/12/06 10:53:17;;;;;;;30.98;19.77;;;2.30;99.90;;;;;;5050016;28;20102;-80
2023/12/06 10:55:43;;;;;;;21.13;14.05;;;2.30;99.90;;;;;;5062624;28;20049;-79
2023/12/06 10:58:09;;;;;;;81.63;41.45;;;2.30;99.90;;;;;;5070388;28;20099;-80
2023/12/06 11:00:35;;;;;;;35.92;22.85;;;2.40;99.90;;;;;;5057583;28;20423;-79
2023/12/06 11:03:02;;;;;;;57.33;34.97;;;2.30;99.90;;;;;;5065733;28;20052;-80
2023/12/06 11:05:37;;;;;;;29.23;18.65;;;2.40;99.90;;;;;;5068354;28;20040;-81
2023/12/06 11:09:00;;;;;;;29.92;18.48;;;2.40;99.90;;;;;;5074067;28;20089;-79
2023/12/06 11:11:41;;;;;;;41.42;24.15;;;2.40;99.90;;;;;;5055255;28;20052;-81
2023/12/06 11:14:21;;;;;;;44.05;27.65;;;2.40;99.90;;;;;;5055068;28;20059;-81
2023/12/06 11:17:12;;;;;;;35.40;21.65;;;2.40;99.90;;;;;;5053110;28;20053;-79
2023/12/06 11:19:38;;;;;;;105.55;61.80;;;2.50;99.90;;;;;;5070028;28;20040;-81
2023/12/06 11:22:04;;;;;;;44.13;27.23;;;2.50;99.90;;;;;;5072601;28;20041;-80
2023/12/06 11:24:30;;;;;;;31.55;20.63;;;2.50;99.90;;;;;;5053705;28;20444;-80
2023/12/06 11:26:56;;;;;;;23.50;15.07;;;2.50;99.90;;;;;;5055945;28;20056;-79
2023/12/06 11:29:26;;;;;;;22.67;15.07;;;2.50;99.90;;;;;;5071641;28;20118;-80
2023/12/06 11:31:58;;;;;;;25.60;16.30;;;2.60;99.90;;;;;;5073379;28;20048;-80
2023/12/06 11:34:34;;;;;;;44.80;28.27;;;2.50;99.90;;;;;;5073418;28;20041;-79
2023/12/06 11:37:16;;;;;;;34.03;21.75;;;2.50;99.90;;;;;;5084840;28;20051;-79
2023/12/06 11:40:01;;;;;;;21.30;13.60;;;2.60;99.90;;;;;;5073971;28;20527;-79
2023/12/06 11:42:28;;;;;;;20.65;13.10;;;2.60;99.90;;;;;;5068583;28;20040;-80
2023/12/06 11:44:53;;;;;;;32.63;18.85;;;2.60;99.90;;;;;;5072950;28;20131;-80
2023/12/06 11:47:26;;;;;;;18.88;12.93;;;2.60;99.90;;;;;;5066322;28;20445;-81
2023/12/06 11:49:53;;;;;;;23.42;15.15;;;2.70;99.90;;;;;;5071710;28;20391;-77
2023/12/06 11:52:20;;;;;;;27.92;18.05;;;2.60;99.90;;;;;;5072953;28;20054;-80
2023/12/06 11:54:46;;;;;;;20.20;13.30;;;2.60;99.90;;;;;;5059311;28;20053;-80
2023/12/06 11:57:12;;;;;;;20.77;13.52;;;2.60;99.90;;;;;;5055266;28;20084;-80
2023/12/06 11:59:41;;;;;;;18.83;12.55;;;2.70;99.90;;;;;;5073281;28;20047;-80
2023/12/06 12:02:07;;;;;;;24.08;13.45;;;2.70;99.90;;;;;;5062578;28;20055;-80
2023/12/06 12:04:36;;;;;;;22.02;14.23;;;2.60;99.90;;;;;;5052729;28;20049;-82
2023/12/06 12:07:02;;;;;;;22.92;14.00;;;2.70;99.90;;;;;;5059391;28;20045;-80
2023/12/06 12:09:32;;;;;;;20.02;13.38;;;2.70;99.90;;;;;;5052201;28;20140;-81
2023/12/06 12:11:57;;;;;;;20.17;13.02;;;2.80;99.90;;;;;;5052871;28;20094;-81
2023/12/06 12:14:23;;;;;;;23.27;12.63;;;2.70;99.90;;;;;;5039589;28;20044;-81
2023/12/06 12:16:49;;;;;;;20.05;13.40;;;2.60;99.90;;;;;;5042262;28;20047;-80
2023/12/06 12:19:15;;;;;;;18.38;12.02;;;3.00;99.90;;;;;;5060922;28;20128;-81
2023/12/06 12:21:41;;;;;;;18.48;12.07;;;2.60;99.90;;;;;;5056102;28;20119;-80
2023/12/06 12:24:07;;;;;;;21.55;14.40;;;2.60;99.90;;;;;;5072597;28;20048;-80
2023/12/06 12:26:34;;;;;;;20.83;13.88;;;2.60;99.90;;;;;;5061143;28;20053;-80
2023/12/06 12:28:59;;;;;;;35.70;23.60;;;2.60;99.90;;;;;;5051525;28;20523;-79
2023/12/06 12:31:30;;;;;;;26.80;16.92;;;2.70;99.90;;;;;;5052567;28;20437;-79
2023/12/06 12:33:56;;;;;;;21.88;14.70;;;2.60;99.90;;;;;;5052587;28;20396;-79